sensor_id;sensor_type;location;lat;lon;timestamp;pressure;altitude;pressure_sealevel;temperature;humidity
55540;BME280;41384;51.418;7.286;2023-07-16T00:00:46;99242.53;;;20.58;82.75
55540;BME280;41384;51.418;7.286;2023-07-16T00:03:11;99238.91;;;20.67;82.34
55540;BME280;41384;51.418;7.286;2023-07-16T00:05:39;99240.75;;;20.72;81.69
55540;BME280;41384;51.418;7.286;2023-07-16T00:08:04;99235.78;;;20.60;82.02
55540;BME280;41384;51.418;7.286;2023-07-16T00:10:29;99245.28;;;20.71;81.92
55540;BME280;41384;51.418;7.286;2023-07-16T00:12:55;99243.50;;;20.67;82.03
55540;BME280;41384;51.418;7.286;2023-07-16T00:15:21;99259.56;;;20.67;82.12
55540;BME280;41384;51.418;7.286;2023-07-16T00:17:46;99251.97;;;20.74;82.35
55540;BME280;41384;51.418;7.286;2023-07-16T00:20:12;99254.63;;;20.55;83.03
55540;BME280;41384;51.418;7.286;2023-07-16T00:22:37;99250.16;;;20.69;82.28
55540;BME280;41384;51.418;7.286;2023-07-16T00:25:05;99247.69;;;20.73;82.21
55540;BME280;41384;51.418;7.286;2023-07-16T00:27:30;99256.66;;;20.63;81.94
55540;BME280;41384;51.418;7.286;2023-07-16T00:29:55;99260.28;;;20.73;82.13
55540;BME280;41384;51.418;7.286;2023-07-16T00:32:21;99262.53;;;20.65;82.26
55540;BME280;41384;51.418;7.286;2023-07-16T00:34:46;99260.03;;;20.50;82.84
55540;BME280;41384;51.418;7.286;2023-07-16T00:37:11;99269.63;;;20.56;82.98
55540;BME280;41384;51.418;7.286;2023-07-16T00:39:37;99269.97;;;20.49;83.62
55540;BME280;41384;51.418;7.286;2023-07-16T00:42:02;99269.56;;;20.61;83.55
55540;BME280;41384;51.418;7.286;2023-07-16T00:44:28;99267.00;;;20.51;84.06
55540;BME280;41384;51.418;7.286;2023-07-16T00:46:53;99271.50;;;20.55;83.22
55540;BME280;41384;51.418;7.286;2023-07-16T00:49:18;99279.19;;;20.62;82.69
55540;BME280;41384;51.418;7.286;2023-07-16T00:51:44;99278.19;;;20.34;84.34
55540;BME280;41384;51.418;7.286;2023-07-16T00:54:09;99283.31;;;20.30;84.52
55540;BME280;41384;51.418;7.286;2023-07-16T00:56:37;99280.69;;;20.25;84.73
55540;BME280;41384;51.418;7.286;2023-07-16T00:59:02;99268.00;;;20.31;84.46
55540;BME280;41384;51.418;7.286;2023-07-16T01:01:27;99276.28;;;20.34;84.22
55540;BME280;41384;51.418;7.286;2023-07-16T01:03:53;99280.97;;;20.48;83.37
55540;BME280;41384;51.418;7.286;2023-07-16T01:06:37;99283.50;;;20.39;83.52
55540;BME280;41384;51.418;7.286;2023-07-16T01:09:16;99280.25;;;20.42;83.37
55540;BME280;41384;51.418;7.286;2023-07-16T01:11:46;99276.19;;;20.45;83.69
55540;BME280;41384;51.418;7.286;2023-07-16T01:14:17;99286.38;;;20.42;83.29
55540;BME280;41384;51.418;7.286;2023-07-16T01:16:42;99285.19;;;20.30;84.28
55540;BME280;41384;51.418;7.286;2023-07-16T01:19:08;99284.00;;;20.41;84.26
55540;BME280;41384;51.418;7.286;2023-07-16T01:21:41;99267.88;;;20.46;83.56
55540;BME280;41384;51.418;7.286;2023-07-16T01:30:04;99287.63;;;20.26;83.58
55540;BME280;41384;51.418;7.286;2023-07-16T01:32:30;99286.81;;;20.25;83.69
55540;BME280;41384;51.418;7.286;2023-07-16T01:34:57;99282.34;;;20.21;83.96
55540;BME280;41384;51.418;7.286;2023-07-16T01:37:22;99293.63;;;20.18;83.60
55540;BME280;41384;51.418;7.286;2023-07-16T01:39:48;99294.13;;;20.20;83.51
55540;BME280;41384;51.418;7.286;2023-07-16T01:42:14;99295.47;;;20.17;83.58
55540;BME280;41384;51.418;7.286;2023-07-16T01:44:39;99292.06;;;20.11;83.14
55540;BME280;41384;51.418;7.286;2023-07-16T01:47:05;99292.22;;;19.96;83.90
55540;BME280;41384;51.418;7.286;2023-07-16T01:49:32;99294.94;;;19.86;82.74
55540;BME280;41384;51.418;7.286;2023-07-16T01:51:57;99297.56;;;19.96;82.00
55540;BME280;41384;51.418;7.286;2023-07-16T01:54:23;99291.13;;;19.97;82.18
55540;BME280;41384;51.418;7.286;2023-07-16T01:56:48;99303.81;;;20.16;80.73
55540;BME280;41384;51.418;7.286;2023-07-16T01:59:13;99305.59;;;20.25;80.54
55540;BME280;41384;51.418;7.286;2023-07-16T02:01:38;99306.31;;;20.07;82.25
55540;BME280;41384;51.418;7.286;2023-07-16T02:04:04;99305.16;;;20.13;82.08
55540;BME280;41384;51.418;7.286;2023-07-16T02:06:29;99312.94;;;20.15;82.77
55540;BME280;41384;51.418;7.286;2023-07-16T02:08:54;99315.56;;;20.20;82.35
55540;BME280;41384;51.418;7.286;2023-07-16T02:11:19;99327.31;;;20.24;82.23
55540;BME280;41384;51.418;7.286;2023-07-16T02:13:45;99325.66;;;19.98;84.17
55540;BME280;41384;51.418;7.286;2023-07-16T02:16:10;99322.94;;;20.04;84.50
55540;BME280;41384;51.418;7.286;2023-07-16T02:18:35;99319.31;;;19.84;86.51
55540;BME280;41384;51.418;7.286;2023-07-16T02:21:00;99325.41;;;20.00;85.12
55540;BME280;41384;51.418;7.286;2023-07-16T02:23:27;99329.88;;;20.05;85.15
55540;BME280;41384;51.418;7.286;2023-07-16T02:25:52;99332.94;;;19.93;86.67
55540;BME280;41384;51.418;7.286;2023-07-16T02:28:17;99335.81;;;20.02;86.39
55540;BME280;41384;51.418;7.286;2023-07-16T02:30:43;99336.66;;;19.97;86.99
55540;BME280;41384;51.418;7.286;2023-07-16T02:33:08;99332.41;;;19.96;87.60
55540;BME280;41384;51.418;7.286;2023-07-16T02:35:33;99345.41;;;20.08;86.95
55540;BME280;41384;51.418;7.286;2023-07-16T02:37:59;99335.47;;;19.74;89.71
55540;BME280;41384;51.418;7.286;2023-07-16T02:40:24;99334.47;;;19.64;89.87
55540;BME280;41384;51.418;7.286;2023-07-16T02:42:49;99343.81;;;19.67;89.54
55540;BME280;41384;51.418;7.286;2023-07-16T02:45:14;99338.09;;;19.79;88.58
55540;BME280;41384;51.418;7.286;2023-07-16T02:47:40;99346.28;;;19.58;90.23
55540;BME280;41384;51.418;7.286;2023-07-16T02:50:05;99351.84;;;19.67;89.01
55540;BME280;41384;51.418;7.286;2023-07-16T02:52:31;99352.75;;;19.87;87.01
55540;BME280;41384;51.418;7.286;2023-07-16T02:54:56;99355.63;;;19.61;87.87
55540;BME280;41384;51.418;7.286;2023-07-16T02:57:21;99357.38;;;19.81;87.90
55540;BME280;41384;51.418;7.286;2023-07-16T02:59:47;99345.06;;;19.80;86.79
55540;BME280;41384;51.418;7.286;2023-07-16T03:02:13;99359.00;;;19.77;86.74
55540;BME280;41384;51.418;7.286;2023-07-16T03:04:38;99358.66;;;19.89;85.73
55540;BME280;41384;51.418;7.286;2023-07-16T03:07:04;99352.25;;;19.90;85.01
55540;BME280;41384;51.418;7.286;2023-07-16T03:09:29;99359.84;;;19.72;85.27
55540;BME280;41384;51.418;7.286;2023-07-16T03:11:54;99356.88;;;19.74;84.23
55540;BME280;41384;51.418;7.286;2023-07-16T03:14:20;99359.59;;;19.68;84.78
55540;BME280;41384;51.418;7.286;2023-07-16T03:16:45;99365.66;;;19.79;83.85
55540;BME280;41384;51.418;7.286;2023-07-16T03:19:10;99368.59;;;19.43;84.33
55540;BME280;41384;51.418;7.286;2023-07-16T03:21:35;99367.28;;;19.30;85.42
55540;BME280;41384;51.418;7.286;2023-07-16T03:24:01;99372.88;;;19.39;83.50
55540;BME280;41384;51.418;7.286;2023-07-16T03:26:26;99366.47;;;19.35;83.86
55540;BME280;41384;51.418;7.286;2023-07-16T03:28:51;99372.81;;;19.49;82.48
55540;BME280;41384;51.418;7.286;2023-07-16T03:31:16;99379.38;;;19.28;82.22
55540;BME280;41384;51.418;7.286;2023-07-16T03:33:42;99380.13;;;19.33;81.75
55540;BME280;41384;51.418;7.286;2023-07-16T03:36:07;99392.75;;;19.22;81.29
55540;BME280;41384;51.418;7.286;2023-07-16T03:38:32;99388.47;;;19.27;81.38
55540;BME280;41384;51.418;7.286;2023-07-16T03:40:57;99387.03;;;19.50;79.79
55540;BME280;41384;51.418;7.286;2023-07-16T03:43:23;99395.88;;;19.45;78.41
55540;BME280;41384;51.418;7.286;2023-07-16T03:45:48;99406.94;;;19.23;79.17
55540;BME280;41384;51.418;7.286;2023-07-16T03:48:14;99412.72;;;19.40;78.22
55540;BME280;41384;51.418;7.286;2023-07-16T03:50:39;99416.03;;;19.17;77.41
55540;BME280;41384;51.418;7.286;2023-07-16T03:53:04;99414.44;;;19.21;77.21
55540;BME280;41384;51.418;7.286;2023-07-16T03:55:30;99420.84;;;19.25;75.66
55540;BME280;41384;51.418;7.286;2023-07-16T03:57:55;99420.91;;;19.04;76.35
55540;BME280;41384;51.418;7.286;2023-07-16T04:00:21;99426.72;;;19.22;75.91
55540;BME280;41384;51.418;7.286;2023-07-16T04:02:46;99428.34;;;19.23;75.12
55540;BME280;41384;51.418;7.286;2023-07-16T04:05:12;99431.50;;;19.30;73.59
55540;BME280;41384;51.418;7.286;2023-07-16T04:07:37;99429.38;;;19.27;73.56
55540;BME280;41384;51.418;7.286;2023-07-16T04:10:03;99439.50;;;19.40;73.10
55540;BME280;41384;51.418;7.286;2023-07-16T04:12:28;99440.84;;;19.43;72.60
55540;BME280;41384;51.418;7.286;2023-07-16T04:14:57;99438.53;;;19.10;73.37
55540;BME280;41384;51.418;7.286;2023-07-16T04:17:22;99439.34;;;19.16;73.16
55540;BME280;41384;51.418;7.286;2023-07-16T04:19:49;99442.03;;;19.06;73.41
55540;BME280;41384;51.418;7.286;2023-07-16T04:22:14;99446.84;;;18.99;73.48
55540;BME280;41384;51.418;7.286;2023-07-16T04:24:39;99445.22;;;19.13;73.37
55540;BME280;41384;51.418;7.286;2023-07-16T04:27:05;99440.44;;;19.00;73.69
55540;BME280;41384;51.418;7.286;2023-07-16T04:29:30;99448.69;;;19.19;73.21
55540;BME280;41384;51.418;7.286;2023-07-16T04:31:55;99453.78;;;19.15;72.48
55540;BME280;41384;51.418;7.286;2023-07-16T04:34:21;99456.47;;;19.10;72.49
55540;BME280;41384;51.418;7.286;2023-07-16T04:36:46;99450.34;;;18.99;72.44
55540;BME280;41384;51.418;7.286;2023-07-16T04:39:11;99450.06;;;19.06;72.59
55540;BME280;41384;51.418;7.286;2023-07-16T04:41:37;99451.09;;;18.94;71.79
55540;BME280;41384;51.418;7.286;2023-07-16T04:44:02;99463.97;;;19.08;71.63
55540;BME280;41384;51.418;7.286;2023-07-16T04:46:27;99465.25;;;19.26;71.11
55540;BME280;41384;51.418;7.286;2023-07-16T04:48:53;99476.81;;;19.06;71.09
55540;BME280;41384;51.418;7.286;2023-07-16T04:51:18;99480.03;;;19.08;71.03
55540;BME280;41384;51.418;7.286;2023-07-16T04:53:44;99474.91;;;19.17;70.45
55540;BME280;41384;51.418;7.286;2023-07-16T04:56:13;99481.59;;;19.24;70.29
55540;BME280;41384;51.418;7.286;2023-07-16T04:58:38;99481.28;;;19.26;69.77
55540;BME280;41384;51.418;7.286;2023-07-16T05:01:03;99482.66;;;19.18;69.96
55540;BME280;41384;51.418;7.286;2023-07-16T05:03:29;99472.53;;;19.10;69.89
55540;BME280;41384;51.418;7.286;2023-07-16T05:05:54;99489.31;;;19.26;69.29
55540;BME280;41384;51.418;7.286;2023-07-16T05:08:19;99492.84;;;19.11;68.60
55540;BME280;41384;51.418;7.286;2023-07-16T05:10:45;99488.03;;;19.13;68.44
55540;BME280;41384;51.418;7.286;2023-07-16T05:13:10;99497.66;;;19.09;68.73
55540;BME280;41384;51.418;7.286;2023-07-16T05:15:37;99500.09;;;19.00;68.40
55540;BME280;41384;51.418;7.286;2023-07-16T05:18:02;99500.03;;;19.21;68.72
55540;BME280;41384;51.418;7.286;2023-07-16T05:20:28;99504.78;;;19.39;68.04
55540;BME280;41384;51.418;7.286;2023-07-16T05:22:53;99505.16;;;19.17;68.63
55540;BME280;41384;51.418;7.286;2023-07-16T05:25:18;99500.88;;;19.06;68.95
55540;BME280;41384;51.418;7.286;2023-07-16T05:27:44;99499.53;;;18.83;69.54
55540;BME280;41384;51.418;7.286;2023-07-16T05:30:09;99513.19;;;19.02;69.29
55540;BME280;41384;51.418;7.286;2023-07-16T05:32:35;99513.97;;;19.07;68.74
55540;BME280;41384;51.418;7.286;2023-07-16T05:35:00;99507.84;;;19.07;69.27
55540;BME280;41384;51.418;7.286;2023-07-16T05:37:26;99511.03;;;19.19;68.93
55540;BME280;41384;51.418;7.286;2023-07-16T05:39:51;99513.44;;;19.05;69.30
55540;BME280;41384;51.418;7.286;2023-07-16T05:42:17;99511.28;;;19.13;68.91
55540;BME280;41384;51.418;7.286;2023-07-16T05:44:42;99510.75;;;19.21;68.45
55540;BME280;41384;51.418;7.286;2023-07-16T05:47:09;99509.94;;;19.25;69.13
55540;BME280;41384;51.418;7.286;2023-07-16T05:49:34;99504.63;;;19.05;68.14
55540;BME280;41384;51.418;7.286;2023-07-16T05:52:00;99515.03;;;18.96;68.49
55540;BME280;41384;51.418;7.286;2023-07-16T05:54:25;99514.53;;;19.04;67.90
55540;BME280;41384;51.418;7.286;2023-07-16T05:56:50;99519.06;;;19.14;67.50
55540;BME280;41384;51.418;7.286;2023-07-16T05:59:16;99517.47;;;19.03;66.87
55540;BME280;41384;51.418;7.286;2023-07-16T06:01:41;99512.63;;;18.94;67.42
55540;BME280;41384;51.418;7.286;2023-07-16T06:04:06;99511.03;;;19.09;66.40
55540;BME280;41384;51.418;7.286;2023-07-16T06:06:32;99514.50;;;19.09;65.98
55540;BME280;41384;51.418;7.286;2023-07-16T06:08:57;99530.00;;;19.18;65.89
55540;BME280;41384;51.418;7.286;2023-07-16T06:11:22;99526.03;;;19.05;65.59
55540;BME280;41384;51.418;7.286;2023-07-16T06:13:48;99531.06;;;19.22;65.67
55540;BME280;41384;51.418;7.286;2023-07-16T06:16:13;99531.34;;;18.94;65.80
55540;BME280;41384;51.418;7.286;2023-07-16T06:18:38;99532.16;;;19.16;64.75
55540;BME280;41384;51.418;7.286;2023-07-16T06:21:04;99528.69;;;19.15;64.87
55540;BME280;41384;51.418;7.286;2023-07-16T06:23:29;99528.38;;;19.22;64.90
55540;BME280;41384;51.418;7.286;2023-07-16T06:25:57;99536.69;;;19.25;64.17
55540;BME280;41384;51.418;7.286;2023-07-16T06:28:23;99544.16;;;19.34;64.43
55540;BME280;41384;51.418;7.286;2023-07-16T06:30:50;99539.06;;;19.37;63.90
55540;BME280;41384;51.418;7.286;2023-07-16T06:33:17;99554.59;;;19.30;63.44
55540;BME280;41384;51.418;7.286;2023-07-16T06:35:44;99550.56;;;19.43;63.09
55540;BME280;41384;51.418;7.286;2023-07-16T06:38:10;99554.34;;;19.21;63.36
55540;BME280;41384;51.418;7.286;2023-07-16T06:40:35;99556.47;;;19.40;62.94
55540;BME280;41384;51.418;7.286;2023-07-16T06:43:00;99551.84;;;19.61;63.00
55540;BME280;41384;51.418;7.286;2023-07-16T06:45:26;99554.03;;;19.38;63.11
55540;BME280;41384;51.418;7.286;2023-07-16T06:47:51;99556.22;;;19.26;62.51
55540;BME280;41384;51.418;7.286;2023-07-16T06:50:16;99563.47;;;19.10;62.15
55540;BME280;41384;51.418;7.286;2023-07-16T06:52:41;99557.03;;;19.27;62.83
55540;BME280;41384;51.418;7.286;2023-07-16T06:55:07;99572.53;;;19.24;63.09
55540;BME280;41384;51.418;7.286;2023-07-16T06:57:32;99564.00;;;19.22;62.24
55540;BME280;41384;51.418;7.286;2023-07-16T06:59:58;99566.34;;;19.34;62.81
55540;BME280;41384;51.418;7.286;2023-07-16T07:02:23;99557.53;;;19.34;62.50
55540;BME280;41384;51.418;7.286;2023-07-16T07:04:48;99559.66;;;19.42;62.06
55540;BME280;41384;51.418;7.286;2023-07-16T07:07:13;99556.97;;;19.47;61.69
55540;BME280;41384;51.418;7.286;2023-07-16T07:09:39;99561.22;;;19.59;61.34
55540;BME280;41384;51.418;7.286;2023-07-16T07:12:04;99577.06;;;19.29;60.91
55540;BME280;41384;51.418;7.286;2023-07-16T07:14:30;99562.63;;;19.30;60.78
55540;BME280;41384;51.418;7.286;2023-07-16T07:16:55;99557.53;;;19.39;60.44
55540;BME280;41384;51.418;7.286;2023-07-16T07:19:21;99568.47;;;19.53;60.54
55540;BME280;41384;51.418;7.286;2023-07-16T07:21:46;99561.25;;;19.43;60.33
55540;BME280;41384;51.418;7.286;2023-07-16T07:24:12;99567.13;;;19.50;59.83
55540;BME280;41384;51.418;7.286;2023-07-16T07:26:37;99568.75;;;19.41;59.64
55540;BME280;41384;51.418;7.286;2023-07-16T07:29:02;99570.66;;;19.30;59.14
55540;BME280;41384;51.418;7.286;2023-07-16T07:31:28;99568.50;;;19.32;59.43
55540;BME280;41384;51.418;7.286;2023-07-16T07:33:53;99574.38;;;19.50;59.17
55540;BME280;41384;51.418;7.286;2023-07-16T07:36:19;99574.91;;;19.42;59.35
55540;BME280;41384;51.418;7.286;2023-07-16T07:38:44;99575.72;;;19.42;59.07
55540;BME280;41384;51.418;7.286;2023-07-16T07:41:09;99582.38;;;19.65;58.71
55540;BME280;41384;51.418;7.286;2023-07-16T07:43:34;99579.69;;;19.60;58.17
55540;BME280;41384;51.418;7.286;2023-07-16T07:46:00;99577.53;;;19.67;57.79
55540;BME280;41384;51.418;7.286;2023-07-16T07:48:25;99588.53;;;19.61;57.91
55540;BME280;41384;51.418;7.286;2023-07-16T07:50:50;99585.53;;;19.78;57.49
55540;BME280;41384;51.418;7.286;2023-07-16T07:53:16;99584.16;;;19.80;56.91
55540;BME280;41384;51.418;7.286;2023-07-16T07:55:43;99586.31;;;19.78;56.53
55540;BME280;41384;51.418;7.286;2023-07-16T07:58:08;99584.47;;;19.74;56.87
55540;BME280;41384;51.418;7.286;2023-07-16T08:00:34;99585.78;;;19.76;57.02
55540;BME280;41384;51.418;7.286;2023-07-16T08:02:59;99593.81;;;19.81;57.37
55540;BME280;41384;51.418;7.286;2023-07-16T08:05:24;99586.34;;;19.73;55.66
55540;BME280;41384;51.418;7.286;2023-07-16T08:07:50;99595.97;;;19.90;56.31
55540;BME280;41384;51.418;7.286;2023-07-16T08:10:15;99586.31;;;19.89;55.38
55540;BME280;41384;51.418;7.286;2023-07-16T08:12:40;99596.78;;;19.80;55.12
55540;BME280;41384;51.418;7.286;2023-07-16T08:15:06;99591.94;;;19.92;55.56
55540;BME280;41384;51.418;7.286;2023-07-16T08:17:33;99587.38;;;19.98;54.99
55540;BME280;41384;51.418;7.286;2023-07-16T08:19:58;99594.59;;;19.97;54.46
55540;BME280;41384;51.418;7.286;2023-07-16T08:22:24;99597.56;;;19.80;54.22
55540;BME280;41384;51.418;7.286;2023-07-16T08:24:51;99600.50;;;19.94;54.41
55540;BME280;41384;51.418;7.286;2023-07-16T08:27:16;99602.09;;;19.95;53.96
55540;BME280;41384;51.418;7.286;2023-07-16T08:29:41;99604.22;;;19.98;53.59
55540;BME280;41384;51.418;7.286;2023-07-16T08:32:07;99593.69;;;20.18;54.52
55540;BME280;41384;51.418;7.286;2023-07-16T08:34:32;99603.56;;;20.33;55.12
55540;BME280;41384;51.418;7.286;2023-07-16T08:36:57;99614.03;;;20.24;53.25
55540;BME280;41384;51.418;7.286;2023-07-16T08:39:23;99608.59;;;20.39;53.20
55540;BME280;41384;51.418;7.286;2023-07-16T08:41:48;99616.03;;;20.48;52.55
55540;BME280;41384;51.418;7.286;2023-07-16T08:44:13;99618.81;;;20.32;52.79
55540;BME280;41384;51.418;7.286;2023-07-16T08:46:39;99622.25;;;20.43;52.37
55540;BME280;41384;51.418;7.286;2023-07-16T08:49:07;99621.13;;;20.54;51.95
55540;BME280;41384;51.418;7.286;2023-07-16T08:51:34;99622.97;;;20.54;51.87
55540;BME280;41384;51.418;7.286;2023-07-16T08:54:00;99616.09;;;20.37;51.84
55540;BME280;41384;51.418;7.286;2023-07-16T08:56:25;99618.22;;;20.40;51.76
55540;BME280;41384;51.418;7.286;2023-07-16T08:58:54;99634.09;;;20.37;51.69
55540;BME280;41384;51.418;7.286;2023-07-16T09:01:20;99627.03;;;20.51;51.61
55540;BME280;41384;51.418;7.286;2023-07-16T09:03:45;99615.09;;;20.78;51.68
55540;BME280;41384;51.418;7.286;2023-07-16T09:06:11;99627.91;;;20.87;51.43
55540;BME280;41384;51.418;7.286;2023-07-16T09:08:36;99627.06;;;20.91;51.02
55540;BME280;41384;51.418;7.286;2023-07-16T09:11:02;99618.38;;;21.05;50.93
55540;BME280;41384;51.418;7.286;2023-07-16T09:13:29;99628.47;;;21.18;50.88
55540;BME280;41384;51.418;7.286;2023-07-16T09:15:56;99623.25;;;21.32;50.48
55540;BME280;41384;51.418;7.286;2023-07-16T09:18:22;99622.56;;;21.16;49.65
55540;BME280;41384;51.418;7.286;2023-07-16T09:20:53;99630.69;;;21.40;50.26
55540;BME280;41384;51.418;7.286;2023-07-16T09:23:19;99626.44;;;21.64;49.72
55540;BME280;41384;51.418;7.286;2023-07-16T09:25:44;99626.34;;;21.74;48.28
55540;BME280;41384;51.418;7.286;2023-07-16T09:28:10;99627.75;;;21.66;47.95
55540;BME280;41384;51.418;7.286;2023-07-16T09:30:35;99645.94;;;21.75;48.48
55540;BME280;41384;51.418;7.286;2023-07-16T09:33:17;99641.41;;;21.94;48.11
55540;BME280;41384;51.418;7.286;2023-07-16T09:35:43;99634.16;;;21.95;46.50
55540;BME280;41384;51.418;7.286;2023-07-16T09:38:09;99643.72;;;22.06;46.78
55540;BME280;41384;51.418;7.286;2023-07-16T09:40:38;99641.81;;;22.07;46.67
55540;BME280;41384;51.418;7.286;2023-07-16T09:43:05;99635.44;;;22.22;46.69
55540;BME280;41384;51.418;7.286;2023-07-16T09:45:31;99641.84;;;22.26;46.36
55540;BME280;41384;51.418;7.286;2023-07-16T09:47:56;99639.25;;;21.96;46.23
55540;BME280;41384;51.418;7.286;2023-07-16T09:50:23;99631.81;;;21.64;46.84
55540;BME280;41384;51.418;7.286;2023-07-16T09:52:51;99646.84;;;21.65;46.83
55540;BME280;41384;51.418;7.286;2023-07-16T09:55:16;99654.06;;;21.94;46.59
55540;BME280;41384;51.418;7.286;2023-07-16T09:57:43;99642.75;;;21.97;45.99
55540;BME280;41384;51.418;7.286;2023-07-16T10:00:10;99645.13;;;21.98;45.90
55540;BME280;41384;51.418;7.286;2023-07-16T10:02:38;99648.34;;;22.00;46.54
55540;BME280;41384;51.418;7.286;2023-07-16T10:05:26;99641.59;;;22.03;45.95
55540;BME280;41384;51.418;7.286;2023-07-16T10:07:57;99645.63;;;22.25;45.66
55540;BME280;41384;51.418;7.286;2023-07-16T10:10:38;99644.41;;;22.36;45.55
55540;BME280;41384;51.418;7.286;2023-07-16T10:13:04;99650.00;;;22.40;45.53
55540;BME280;41384;51.418;7.286;2023-07-16T10:15:29;99647.75;;;22.04;44.66
55540;BME280;41384;51.418;7.286;2023-07-16T10:17:56;99647.97;;;22.32;45.86
55540;BME280;41384;51.418;7.286;2023-07-16T10:20:35;99649.59;;;22.52;44.97
55540;BME280;41384;51.418;7.286;2023-07-16T10:23:12;99664.38;;;22.73;44.76
55540;BME280;41384;51.418;7.286;2023-07-16T10:25:38;99654.22;;;23.03;44.76
55540;BME280;41384;51.418;7.286;2023-07-16T10:28:03;99653.47;;;23.17;45.11
55540;BME280;41384;51.418;7.286;2023-07-16T10:30:28;99655.53;;;23.25;45.82
55540;BME280;41384;51.418;7.286;2023-07-16T10:32:54;99659.53;;;23.28;45.07
55540;BME280;41384;51.418;7.286;2023-07-16T10:35:19;99668.84;;;23.16;44.10
55540;BME280;41384;51.418;7.286;2023-07-16T10:37:44;99654.47;;;23.07;43.57
55540;BME280;41384;51.418;7.286;2023-07-16T10:40:11;99671.47;;;23.02;43.45
55540;BME280;41384;51.418;7.286;2023-07-16T10:42:37;99664.66;;;22.91;44.11
55540;BME280;41384;51.418;7.286;2023-07-16T10:45:05;99659.03;;;23.07;44.06
55540;BME280;41384;51.418;7.286;2023-07-16T10:47:35;99672.28;;;23.03;43.80
55540;BME280;41384;51.418;7.286;2023-07-16T10:50:04;99677.78;;;23.12;42.86
55540;BME280;41384;51.418;7.286;2023-07-16T10:52:29;99671.47;;;23.02;44.13
55540;BME280;41384;51.418;7.286;2023-07-16T10:54:55;99688.47;;;23.17;43.89
55540;BME280;41384;51.418;7.286;2023-07-16T10:57:29;99678.53;;;22.98;43.56
55540;BME280;41384;51.418;7.286;2023-07-16T10:59:57;99679.88;;;23.15;43.98
55540;BME280;41384;51.418;7.286;2023-07-16T11:02:23;99686.75;;;22.88;44.09
55540;BME280;41384;51.418;7.286;2023-07-16T11:04:50;99676.88;;;22.83;44.30
55540;BME280;41384;51.418;7.286;2023-07-16T11:07:18;99686.22;;;23.24;44.53
55540;BME280;41384;51.418;7.286;2023-07-16T11:09:50;99675.97;;;23.26;43.92
55540;BME280;41384;51.418;7.286;2023-07-16T11:12:17;99675.28;;;23.35;43.48
55540;BME280;41384;51.418;7.286;2023-07-16T11:14:53;99673.31;;;23.40;43.94
55540;BME280;41384;51.418;7.286;2023-07-16T11:17:20;99677.56;;;23.27;44.34
55540;BME280;41384;51.418;7.286;2023-07-16T11:19:48;99673.22;;;23.45;44.04
55540;BME280;41384;51.418;7.286;2023-07-16T11:22:15;99690.13;;;23.65;44.99
55540;BME280;41384;51.418;7.286;2023-07-16T11:24:42;99694.03;;;23.73;44.11
55540;BME280;41384;51.418;7.286;2023-07-16T11:27:21;99673.47;;;23.77;42.84
55540;BME280;41384;51.418;7.286;2023-07-16T11:29:48;99680.34;;;23.69;44.39
55540;BME280;41384;51.418;7.286;2023-07-16T11:32:31;99691.44;;;23.68;44.10
55540;BME280;41384;51.418;7.286;2023-07-16T11:34:57;99687.56;;;23.41;43.77
55540;BME280;41384;51.418;7.286;2023-07-16T11:37:28;99686.72;;;23.26;43.77
55540;BME280;41384;51.418;7.286;2023-07-16T11:40:15;99695.91;;;23.25;43.68
55540;BME280;41384;51.418;7.286;2023-07-16T11:42:41;99702.81;;;23.31;43.94
55540;BME280;41384;51.418;7.286;2023-07-16T11:47:45;99695.09;;;23.06;43.84
55540;BME280;41384;51.418;7.286;2023-07-16T11:50:11;99692.00;;;23.51;43.23
55540;BME280;41384;51.418;7.286;2023-07-16T11:52:36;99702.84;;;23.45;42.93
55540;BME280;41384;51.418;7.286;2023-07-16T11:55:01;99696.59;;;23.50;43.66
55540;BME280;41384;51.418;7.286;2023-07-16T11:57:29;99705.13;;;23.38;43.79
55540;BME280;41384;51.418;7.286;2023-07-16T11:59:54;99709.13;;;23.41;44.39
55540;BME280;41384;51.418;7.286;2023-07-16T12:02:20;99704.91;;;23.35;44.07
55540;BME280;41384;51.418;7.286;2023-07-16T12:04:46;99709.94;;;23.22;43.96
55540;BME280;41384;51.418;7.286;2023-07-16T12:07:11;99710.97;;;23.26;43.60
55540;BME280;41384;51.418;7.286;2023-07-16T12:09:37;99708.50;;;23.30;44.48
55540;BME280;41384;51.418;7.286;2023-07-16T12:12:02;99708.91;;;23.37;44.56
55540;BME280;41384;51.418;7.286;2023-07-16T12:14:28;99706.66;;;23.44;44.34
55540;BME280;41384;51.418;7.286;2023-07-16T12:16:53;99701.06;;;23.22;43.50
55540;BME280;41384;51.418;7.286;2023-07-16T12:19:19;99708.78;;;23.28;43.94
55540;BME280;41384;51.418;7.286;2023-07-16T12:21:44;99711.78;;;23.27;43.81
55540;BME280;41384;51.418;7.286;2023-07-16T12:24:10;99711.09;;;23.35;44.53
55540;BME280;41384;51.418;7.286;2023-07-16T12:26:35;99701.72;;;23.32;44.87
55540;BME280;41384;51.418;7.286;2023-07-16T12:29:01;99700.63;;;23.34;44.64
55540;BME280;41384;51.418;7.286;2023-07-16T12:31:32;99712.91;;;23.40;44.15
55540;BME280;41384;51.418;7.286;2023-07-16T12:34:01;99714.31;;;23.37;44.59
55540;BME280;41384;51.418;7.286;2023-07-16T12:36:29;99713.88;;;23.63;44.68
55540;BME280;41384;51.418;7.286;2023-07-16T12:38:55;99707.91;;;23.80;43.36
55540;BME280;41384;51.418;7.286;2023-07-16T12:41:20;99710.28;;;23.82;43.81
55540;BME280;41384;51.418;7.286;2023-07-16T12:43:46;99710.88;;;23.79;43.52
55540;BME280;41384;51.418;7.286;2023-07-16T12:46:12;99708.78;;;23.75;44.14
55540;BME280;41384;51.418;7.286;2023-07-16T12:48:37;99709.69;;;23.71;43.65
55540;BME280;41384;51.418;7.286;2023-07-16T12:51:02;99721.13;;;23.49;43.38
55540;BME280;41384;51.418;7.286;2023-07-16T12:53:28;99719.16;;;23.54;43.79
55540;BME280;41384;51.418;7.286;2023-07-16T12:55:53;99718.28;;;23.73;43.58
55540;BME280;41384;51.418;7.286;2023-07-16T12:58:22;99726.97;;;23.70;43.50
55540;BME280;41384;51.418;7.286;2023-07-16T13:00:47;99720.88;;;23.78;43.10
55540;BME280;41384;51.418;7.286;2023-07-16T13:03:13;99726.59;;;23.90;43.52